Data for 07/23/2018

Time Sea-Level Adjusted Pressure Absolute Pressure Temperature Relative Humidity Dew Point   
(mb) (inHg) (mb) (inHg) (C) (F) (%) (C) (F)
00:05 1026 30.3 855 25.25 17.2 63 37 2.4 36.3
00:10 1026 30.3 856 25.28 17.3 63.1 36 2.2 36
00:15 1026 30.3 855 25.25 17.3 63.1 36 2.2 35.9
00:20 1026 30.3 856 25.28 17.2 63 36 2.3 36.2
00:25 1026 30.3 855 25.25 17.1 62.7 37 2.4 36.3
00:30 1026 30.3 856 25.28 17 62.6 37 2.3 36.1
00:35 1026 30.3 855 25.25 17 62.5 37 2.2 36
00:40 1026 30.3 855 25.25 17 62.6 37 2.2 36
00:45 1026 30.3 855 25.25 16.9 62.5 37 2.3 36.2
00:50 1026 30.3 855 25.25 16.9 62.4 37 2.2 36
00:55 1026 30.3 855 25.25 16.9 62.3 37 2.2 36
01:00 1026 30.3 855 25.25 16.8 62.2 38 2.3 36.2
01:05 1026 30.3 855 25.25 16.7 62 38 2.3 36.1
01:10 1026 30.3 855 25.25 16.6 61.9 38 2.3 36.1
01:15 1026 30.3 856 25.28 16.6 61.8 38 2.3 36.2
01:20 1026 30.3 855 25.25 16.4 61.6 38 2.3 36.1
01:25 1026 30.3 855 25.25 16.4 61.4 39 2.4 36.3
01:30 1026 30.3 856 25.28 16.2 61.2 39 2.4 36.3
01:35 1026 30.3 856 25.28 16.2 61.1 39 2.3 36.2
01:40 1026 30.3 856 25.28 16.1 61 39 2.3 36.2
01:45 1026 30.3 856 25.28 16.1 60.9 39 2.2 35.9
01:50 1026 30.3 856 25.28 16.1 61 39 2.2 35.9
01:55 1026 30.3 856 25.28 16.1 60.9 39 2.2 36
02:00 1026 30.3 856 25.28 16 60.8 39 2.1 35.7
02:05 1026 30.3 856 25.28 16 60.9 39 2 35.6
02:10 1026 30.3 856 25.28 16 60.8 38 2 35.6
02:15 1026 30.3 856 25.28 16 60.7 38 1.9 35.4
02:20 1026 30.3 856 25.28 16 60.7 38 1.6 34.9
02:25 1026 30.3 856 25.28 16 60.7 37 1.6 34.9
02:30 1026 30.3 856 25.28 16 60.8 37 1.6 34.8
02:35 1027 30.33 856 25.28 16 60.8 38 1.7 35.1
02:40 1027 30.33 856 25.28 15.9 60.6 38 1.6 34.9
02:45 1027 30.33 856 25.28 15.9 60.5 38 1.5 34.7
02:50 1027 30.33 856 25.28 15.8 60.5 38 1.6 34.8
02:55 1027 30.33 856 25.28 15.7 60.3 38 1.5 34.7
03:00 1027 30.33 856 25.28 15.7 60.3 38 1.4 34.5
03:05 1027 30.33 856 25.28 15.7 60.3 37 1.4 34.5
03:10 1027 30.33 856 25.28 15.7 60.2 37 1.3 34.4
03:15 1027 30.33 856 25.28 15.6 60.1 38 1.3 34.4
03:20 1027 30.33 856 25.28 15.6 60.1 38 1.4 34.5
03:25 1027 30.33 856 25.28 15.5 59.9 38 1.4 34.5
03:30 1027 30.33 856 25.28 15.5 59.8 38 1.4 34.5
03:35 1027 30.33 856 25.28 15.4 59.7 38 1.4 34.5
03:40 1027 30.33 856 25.28 15.3 59.6 39 1.4 34.5
03:45 1027 30.33 856 25.28 15.3 59.5 39 1.4 34.4
03:50 1027 30.33 856 25.28 15.3 59.5 39 1.3 34.4
03:55 1027 30.33 856 25.28 15.3 59.5 38 1.1 33.9
04:00 1027 30.33 856 25.28 15.3 59.6 38 1.1 34.1
04:05 1027 30.33 856 25.28 15.3 59.6 38 1.1 33.9
04:10 1027 30.33 856 25.28 15.4 59.6 38 1.1 33.9
04:15 1027 30.33 856 25.28 15.3 59.6 38 1 33.8
04:20 1027 30.33 856 25.28 15.2 59.4 38 1.2 34.1
04:25 1027 30.33 856 25.28 15.1 59.3 38 1 33.9
04:30 1027 30.33 856 25.28 15.1 59.2 39 1.3 34.3
04:35 1027 30.33 856 25.28 15 59 39 1.3 34.4
04:40 1027 30.33 856 25.28 14.9 58.7 40 1.3 34.4
04:45 1027 30.33 856 25.28 14.8 58.7 40 1.3 34.3
04:50 1027 30.33 856 25.28 14.7 58.5 40 1.3 34.4
04:55 1027 30.33 856 25.28 14.7 58.4 40 1.5 34.6
05:00 1027 30.33 856 25.28 14.6 58.3 41 1.4 34.6
05:05 1027 30.33 856 25.28 14.5 58.1 41 1.6 34.9
05:10 1027 30.33 856 25.28 14.4 57.9 42 1.6 34.8
05:15 1027 30.33 856 25.28 14.4 57.9 42 1.7 35
05:20 1027 30.33 856 25.28 14.3 57.8 42 1.8 35.3
05:25 1027 30.33 856 25.28 14.3 57.7 42 1.8 35.2
05:30 1027 30.33 856 25.28 14.3 57.8 43 1.9 35.5
05:35 1027 30.33 856 25.28 14.3 57.7 43 2 35.7
05:40 1027 30.33 856 25.28 14.2 57.5 43 2 35.5
05:45 1027 30.33 856 25.28 14.2 57.5 44 2.1 35.8
05:50 1027 30.33 856 25.28 14.2 57.5 44 2.1 35.8
05:55 1027 30.33 856 25.28 14.2 57.6 44 2.2 36
06:00 1027 30.33 856 25.28 14.3 57.7 44 2.1 35.9
06:05 1027 30.33 856 25.28 14.3 57.7 44 2.4 36.2
06:10 1027 30.33 856 25.28 14.3 57.7 44 2.4 36.4
06:15 1027 30.33 856 25.28 14.3 57.8 44 2.4 36.3
06:20 1027 30.33 856 25.28 14.4 57.9 44 2.5 36.5
06:25 1027 30.33 856 25.28 14.5 58.1 44 2.5 36.5
06:30 1027 30.33 856 25.28 14.6 58.2 44 2.6 36.8
06:35 1027 30.33 856 25.28 14.7 58.4 44 2.7 36.9
06:40 1027 30.33 856 25.28 14.8 58.6 44 2.8 37
06:45 1027 30.33 856 25.28 14.9 58.9 44 2.8 37.1
06:50 1027 30.33 856 25.28 15 59 44 2.9 37.2
06:55 1027 30.33 856 25.28 15.1 59.3 44 3 37.3
07:00 1027 30.33 856 25.28 15.2 59.4 43 3 37.4
07:05 1027 30.33 856 25.28 15.3 59.6 44 3.2 37.7
07:10 1027 30.33 856 25.28 15.5 59.8 44 3.3 37.9
07:15 1027 30.33 856 25.28 15.5 60 43 3.3 37.9
07:20 1027 30.33 856 25.28 15.7 60.2 43 3.3 37.9
07:25 1027 30.33 856 25.28 15.8 60.5 43 3.4 38.1
07:30 1027 30.33 856 25.28 15.9 60.6 42 3.2 37.8
07:35 1027 30.33 856 25.28 16 60.9 43 3.6 38.5
07:40 1027 30.33 856 25.28 16.1 61 42 3.1 37.7
07:45 1027 30.33 856 25.28 16.2 61.1 42 3.3 38
07:50 1027 30.33 856 25.28 16.4 61.6 41 3.4 38.1
07:55 1027 30.33 856 25.28 16.4 61.5 42 3.5 38.4
08:00 1027 30.33 856 25.28 16.7 62 41 3.5 38.2
08:05 1027 30.33 856 25.28 16.6 61.9 40 3.2 37.7
08:10 1027 30.33 856 25.28 16.8 62.2 40 3.3 38
08:15 1027 30.33 856 25.28 17.1 62.7 40 3.5 38.2
08:20 1027 30.33 856 25.28 17.2 63 40 3.5 38.2
08:25 1027 30.33 856 25.28 17.5 63.4 38 3.3 37.9
08:30 1027 30.33 856 25.28 17.6 63.6 38 3.4 38.1
08:35 1027 30.33 856 25.28 17.5 63.5 39 3.5 38.3
08:40 1027 30.33 856 25.28 18 64.3 38 3.7 38.7
08:45 1027 30.33 856 25.28 18 64.4 38 3.8 38.8
08:50 1027 30.33 856 25.28 18.4 65.1 38 4 39.3
08:55 1027 30.33 856 25.28 18.6 65.4 38 4 39.2
09:00 1027 30.33 856 25.28 18.7 65.7 38 4.1 39.3
09:05 1027 30.33 856 25.28 19 66.1 36 3.5 38.3
09:10 1027 30.33 856 25.28 19.1 66.5 36 3.8 38.8
09:15 1027 30.33 856 25.28 19.4 67 36 4.2 39.5
09:20 1027 30.33 856 25.28 19.5 67 37 4.5 40
09:25 1027 30.33 856 25.28 19.2 66.6 37 4.2 39.5
09:30 1027 30.33 856 25.28 19.7 67.4 36 4.2 39.5
09:35 1027 30.33 856 25.28 19.9 67.9 35 4 39.2
09:40 1027 30.33 856 25.28 20 68 36 4.5 40
09:45 1027 30.33 856 25.28 19.8 67.7 34 3.6 38.4
09:50 1027 30.33 856 25.28 20.8 69.5 32 3.8 38.8
09:55 1027 30.33 856 25.28 20.4 68.8 34 4.2 39.6
10:00 1027 30.33 856 25.28 20.9 69.6 33 4.3 39.8
10:05 1027 30.33 856 25.28 20.8 69.4 32 3.7 38.6
10:10 1027 30.33 856 25.28 20.8 69.4 33 4.3 39.7
10:15 1027 30.33 856 25.28 20.4 68.6 33 3.7 38.7
10:20 1027 30.33 856 25.28 21.6 70.8 30 3.5 38.2
10:25 1027 30.33 856 25.28 21.6 70.9 30 3.4 38.1
10:30 1027 30.33 856 25.28 22.3 72.2 29 3.7 38.6
10:35 1027 30.33 856 25.28 22.5 72.6 29 3.6 38.5
10:40 1027 30.33 856 25.28 23.1 73.6 28 3.8 38.9
10:45 1027 30.33 856 25.28 22.8 73.1 29 4.1 39.4
10:50 1027 30.33 856 25.28 22.6 72.6 30 4.3 39.7
10:55 1027 30.33 856 25.28 22.7 72.8 29 4 39.3
11:00 1027 30.33 856 25.28 22.4 72.2 29 3.6 38.6
11:05 1027 30.33 856 25.28 23.6 74.5 28 4.2 39.5
11:10 1026 30.3 856 25.28 23.2 73.7 28 4 39.2
11:15 1026 30.3 856 25.28 24 75.2 26 3.7 38.7
11:20 1026 30.3 856 25.28 24.4 76 26 4 39.3
11:25 1026 30.3 856 25.28 24.6 76.3 25 3.8 38.8
11:30 1026 30.3 856 25.28 25 76.9 25 3.7 38.6
11:35 1026 30.3 855 25.25 24.3 75.8 26 3.9 39
11:40 1026 30.3 855 25.25 23.7 74.6 26 3.3 37.9
11:45 1026 30.3 855 25.25 24.4 76 25 3.1 37.6
11:50 1026 30.3 855 25.25 24.9 76.8 25 3.8 38.9
11:55 1026 30.3 855 25.25 24.4 76 24 2.6 36.6
12:00 1026 30.3 855 25.25 24.8 76.6 23 2.5 36.5
12:05 1026 30.3 855 25.25 25.8 78.4 22 2.8 37.1
12:10 1026 30.3 855 25.25 25.1 77.1 26 4.5 40.2
12:15 1026 30.3 855 25.25 24.1 75.3 26 3.8 38.8
12:20 1026 30.3 855 25.25 24.3 75.8 25 3.1 37.6
12:25 1026 30.3 855 25.25 24.7 76.4 23 2.6 36.6
12:30 1026 30.3 855 25.25 25 77 22 2.3 36.1
12:35 1026 30.3 855 25.25 25.7 78.3 21 1.7 35.1
12:40 1026 30.3 855 25.25 26.3 79.3 22 3 37.4
12:45 1026 30.3 855 25.25 26.4 79.4 21 2.7 36.9
12:50 1026 30.3 855 25.25 26 78.7 21 1.9 35.4
12:55 1026 30.3 855 25.25 25.9 78.5 19 0.4 32.7
13:00 1026 30.3 855 25.25 25.5 77.8 19 0.7 33.3
13:05 1026 30.3 855 25.25 26.4 79.5 18 0.5 32.9
13:10 1026 30.3 855 25.25 27 80.7 17 -0.1 31.9
13:15 1026 30.3 855 25.25 25.9 78.7 18 -0.2 31.7
13:20 1026 30.3 855 25.25 25.4 77.6 19 -0 31.9
13:25 1026 30.3 855 25.25 26.5 79.6 17 -0.6 30.8
13:30 1026 30.3 855 25.25 26.7 80.1 15 -2.2 28
13:35 1025 30.27 855 25.25 26.3 79.3 17 -0.6 31
13:40 1025 30.27 855 25.25 27.2 80.9 16 -0.5 31.1
13:45 1025 30.27 855 25.25 27.4 81.2 17 0.7 33.2
13:50 1025 30.27 854 25.22 27.8 82.1 15 -0.6 31
13:55 1025 30.27 854 25.22 28.2 82.7 15 -0.5 31.2
14:00 1025 30.27 854 25.22 28.1 82.6 18 2.1 35.7
14:05 1025 30.27 854 25.22 27.9 82.3 17 0.6 33
14:10 1025 30.27 854 25.22 28.2 82.8 17 1 33.8
14:15 1025 30.27 854 25.22 26.9 80.4 20 2 35.6
14:20 1025 30.27 854 25.22 27.2 81 18 0.8 33.4
14:25 1025 30.27 854 25.22 28 82.4 17 0.8 33.4
14:30 1025 30.27 854 25.22 28.3 83 15 -0.4 31.3
14:35 1025 30.27 854 25.22 28 82.4 15 -0.7 30.8
14:40 1025 30.27 854 25.22 28 82.4 15 -1 30.1
14:45 1025 30.27 854 25.22 28.3 83 14 -1 30.1
14:50 1025 30.27 854 25.22 28.2 82.8 15 -0.4 31.3
14:55 1025 30.27 854 25.22 27.9 82.3 15 -0.9 30.4
15:00 1025 30.27 854 25.22 28 82.4 15 -0.3 31.4
15:05 1025 30.27 854 25.22 28.6 83.5 14 -1 30.2
15:10 1025 30.27 854 25.22 28.6 83.4 14 -1.7 28.9
15:15 1025 30.27 854 25.22 28.1 82.5 14 -1.9 28.7
15:20 1025 30.27 854 25.22 27 80.5 14 -2.5 27.6
15:25 1025 30.27 854 25.22 27.5 81.4 13 -2.8 26.9
15:30 1025 30.27 854 25.22 28.1 82.6 14 -2 28.4
15:35 1024 30.24 854 25.22 28.5 83.3 14 -1.3 29.7
15:40 1024 30.24 854 25.22 28.6 83.5 13 -1.8 28.8
15:45 1024 30.24 854 25.22 28.5 83.2 14 -1.2 29.8
15:50 1024 30.24 854 25.22 28.4 83.1 13 -2.8 27
15:55 1024 30.24 854 25.22 28.3 83 12 -3.5 25.6
16:00 1024 30.24 854 25.22 28.3 83 12 -3.3 26.1
16:05 1024 30.24 854 25.22 28.6 83.4 12 -3.5 25.7
16:10 1024 30.24 854 25.22 28.6 83.5 12 -3.4 25.8
16:15 1024 30.24 854 25.22 28.6 83.4 13 -2.6 27.4
16:20 1024 30.24 854 25.22 28.4 83.1 12 -3.1 26.4
16:25 1024 30.24 854 25.22 28.6 83.5 12 -2.8 26.9
16:30 1024 30.24 853 25.19 28.6 83.4 12 -3.2 26.3
16:35 1024 30.24 853 25.19 28.2 82.7 13 -2.9 26.7
16:40 1024 30.24 853 25.19 27.9 82.2 14 -2.1 28.2
16:45 1024 30.24 853 25.19 28.5 83.3 12 -2.9 26.8
16:50 1024 30.24 853 25.19 29.1 84.3 12 -3 26.7
16:55 1024 30.24 853 25.19 28.7 83.6 12 -3.5 25.7
17:00 1024 30.24 853 25.19 27.9 82.1 12 -3.8 25.2
17:05 1024 30.24 853 25.19 27.6 81.8 12 -3.8 25.1
17:10 1024 30.24 853 25.19 27.9 82.2 12 -3.3 26
17:15 1024 30.24 853 25.19 28.4 83.2 13 -2.7 27.1
17:20 1024 30.24 853 25.19 28.6 83.4 12 -3.1 26.5
17:25 1024 30.24 853 25.19 28.2 82.7 13 -3 26.6
17:30 1024 30.24 853 25.19 28.5 83.3 12 -3.5 25.8
17:35 1024 30.24 853 25.19 28.5 83.3 12 -3.1 26.5
17:40 1024 30.24 853 25.19 28.8 83.9 12 -3.5 25.6
17:45 1024 30.24 853 25.19 28.2 82.7 12 -3.6 25.5
17:50 1024 30.24 853 25.19 28.2 82.8 12 -3.2 26.3
17:55 1024 30.24 853 25.19 28.4 83 12 -3.6 25.6
18:00 1024 30.24 853 25.19 28 82.5 11 -4.8 23.4
18:05 1024 30.24 853 25.19 27.8 82 11 -4.7 23.6
18:10 1024 30.24 853 25.19 28.1 82.5 12 -3.5 25.8
18:15 1024 30.24 853 25.19 28.2 82.8 12 -3.8 25.2
18:20 1024 30.24 853 25.19 28.1 82.5 12 -3.3 26.1
18:25 1024 30.24 853 25.19 27.5 81.5 12 -3.8 25.2
18:30 1024 30.24 853 25.19 27.4 81.2 12 -4.1 24.6
18:35 1024 30.24 853 25.19 27.4 81.4 12 -4.6 23.8
18:40 1024 30.24 853 25.19 27.3 81.2 13 -3.6 25.6
18:45 1024 30.24 853 25.19 27.3 81.1 12 -4 24.8
18:50 1024 30.24 853 25.19 27.2 81 12 -4.7 23.5
18:55 1024 30.24 853 25.19 27.2 81 11 -5.2 22.6
19:00 1024 30.24 853 25.19 27.2 80.9 12 -4.6 23.8
19:05 1024 30.24 853 25.19 27.1 80.7 13 -3.2 26.3
19:10 1024 30.24 853 25.19 27 80.5 16 -0.6 30.9
19:15 1024 30.24 853 25.19 26.7 80.1 21 3.2 37.8
19:20 1024 30.24 853 25.19 26.4 79.6 22 3.2 37.7
19:25 1024 30.24 853 25.19 26 78.8 23 3.2 37.8
19:30 1023 30.21 853 25.19 25.6 78.1 24 4.1 39.3
19:35 1023 30.21 853 25.19 25.2 77.4 27 4.9 40.8
19:40 1024 30.24 853 25.19 24.9 76.9 31 6.8 44.3
19:45 1024 30.24 853 25.19 24.3 75.7 31 6.3 43.3
19:50 1024 30.24 853 25.19 23.6 74.5 33 6.8 44.2
19:55 1024 30.24 853 25.19 22.9 73.3 37 7.8 46
20:00 1024 30.24 853 25.19 22.4 72.4 31 4.6 40.2
20:05 1024 30.24 853 25.19 21.6 70.9 39 7.3 45.2
20:10 1024 30.24 853 25.19 21.3 70.3 34 5.1 41.2
20:15 1024 30.24 853 25.19 21.3 70.3 29 2.6 36.6
20:20 1024 30.24 853 25.19 21.2 70.1 28 2.1 35.9
20:25 1024 30.24 853 25.19 21.1 70 28 1.9 35.5
20:30 1024 30.24 853 25.19 20.9 69.6 27 1.2 34.2
20:35 1024 30.24 853 25.19 20.6 69.1 26 0.7 33.2
20:40 1024 30.24 853 25.19 20.6 69 27 1.3 34.4
20:45 1024 30.24 853 25.19 20 67.9 29 1.8 35.2
20:50 1024 30.24 853 25.19 19.4 66.9 31 1.9 35.4
20:55 1024 30.24 853 25.19 19 66.1 31 1.6 34.9
21:00 1024 30.24 853 25.19 18.8 65.8 31 1.4 34.5
21:05 1024 30.24 853 25.19 18.8 65.8 31 1.6 34.9
21:10 1024 30.24 853 25.19 18.6 65.5 32 1.6 34.8
21:15 1024 30.24 853 25.19 18.5 65.3 32 1.6 34.8
21:20 1024 30.24 853 25.19 18.5 65.3 32 1.7 35
21:25 1024 30.24 853 25.19 18.4 65 32 1.4 34.5
21:30 1024 30.24 853 25.19 18.6 65.4 31 1.4 34.5
21:35 1024 30.24 853 25.19 18.6 65.4 32 1.6 34.9
21:40 1024 30.24 853 25.19 18.4 65.1 32 1.7 35.1
21:45 1024 30.24 853 25.19 18.2 64.7 32 1.6 34.8
21:50 1024 30.24 853 25.19 18.1 64.5 33 1.7 35.1
21:55 1024 30.24 853 25.19 17.8 64.1 33 1.6 35
22:00 1024 30.24 853 25.19 17.8 64 34 1.7 35
22:05 1024 30.24 853 25.19 17.7 63.9 34 1.8 35.2
22:10 1024 30.24 853 25.19 17.6 63.7 33 1.5 34.7
22:15 1024 30.24 853 25.19 18.1 64.5 31 0.9 33.7
22:20 1024 30.24 853 25.19 18.5 65.3 29 0.2 32.3
22:25 1024 30.24 853 25.19 18.8 65.8 30 0.8 33.4
22:30 1024 30.24 853 25.19 18.7 65.7 29 0.3 32.5
22:35 1024 30.24 853 25.19 18.9 65.9 30 0.8 33.5
22:40 1024 30.24 853 25.19 18.7 65.7 31 1.6 34.9
22:45 1024 30.24 853 25.19 18.2 64.8 33 2 35.6
22:50 1024 30.24 854 25.22 17.8 64.1 35 2.3 36.1
22:55 1024 30.24 853 25.19 17.7 63.9 35 2.3 36.2
23:00 1024 30.24 854 25.22 17.8 64.1 35 2.3 36.1
23:05 1024 30.24 854 25.22 17.9 64.3 35 2.5 36.5
23:10 1024 30.24 854 25.22 17.8 64 35 2.4 36.3
23:15 1024 30.24 854 25.22 17.7 63.8 34 1.9 35.4
23:20 1025 30.27 854 25.22 17.6 63.7 34 1.6 34.9
23:25 1025 30.27 854 25.22 17.4 63.2 34 1.7 35
23:30 1025 30.27 854 25.22 17.2 63 34 1.5 34.7
23:35 1025 30.27 854 25.22 17.1 62.7 35 1.5 34.6
23:40 1025 30.27 854 25.22 17.1 62.8 34 1.2 34.1
23:45 1025 30.27 854 25.22 17.2 62.9 33 1 33.8
23:50 1025 30.27 854 25.22 17.3 63.1 33 0.9 33.6
23:55 1025 30.27 854 25.22 17.4 63.4 32 0.7 33.2
24:00 1025 30.27 854 25.22 17.8 64.1 30 0.3 32.6